createdAt,value
2018-08-09T00:01:16.999Z,7.17
2018-08-09T00:04:00.989Z,7.53
2018-08-09T00:06:38.217Z,7.05
2018-08-09T00:09:12.971Z,7.20
2018-08-09T00:11:47.738Z,7.50
2018-08-09T00:14:22.416Z,7.55
2018-08-09T00:16:57.169Z,9.10
2018-08-09T00:19:36.915Z,8.40
2018-08-09T00:22:11.830Z,8.30
2018-08-09T00:24:46.573Z,8.23
2018-08-09T00:27:22.319Z,7.95
2018-08-09T00:29:57.995Z,8.40
2018-08-09T00:32:32.695Z,8.83
2018-08-09T00:35:08.430Z,9.00
2018-08-09T00:37:43.498Z,10.08
2018-08-09T00:40:18.210Z,9.08
2018-08-09T00:42:52.968Z,9.15
2018-08-09T00:45:27.724Z,8.60
2018-08-09T00:48:02.448Z,8.98
2018-08-09T00:50:37.499Z,8.45
2018-08-09T00:53:12.220Z,9.25
2018-08-09T00:55:46.952Z,9.60
2018-08-09T00:58:21.699Z,9.15
2018-08-09T01:00:56.472Z,9.03
2018-08-09T01:03:31.696Z,9.20
2018-08-09T01:06:07.447Z,8.90
2018-08-09T01:08:46.340Z,9.20
2018-08-09T01:11:21.062Z,9.65
2018-08-09T01:13:55.947Z,9.33
2018-08-09T01:16:30.971Z,10.00
2018-08-09T01:19:05.743Z,9.78
2018-08-09T01:21:40.468Z,9.68
2018-08-09T01:24:15.210Z,9.55
2018-08-09T01:26:49.951Z,10.45
2018-08-09T01:29:24.668Z,9.98
2018-08-09T01:31:59.428Z,10.55
2018-08-09T01:34:34.227Z,9.88
2018-08-09T01:37:09.992Z,9.23
2018-08-09T01:39:44.718Z,9.30
2018-08-09T01:43:32.803Z,8.98
2018-08-09T01:46:07.816Z,9.53
2018-08-09T01:48:42.516Z,8.68
2018-08-09T01:51:17.203Z,8.60
2018-08-09T01:53:53.864Z,9.60
2018-08-09T01:56:28.606Z,10.35
2018-08-09T01:59:03.378Z,10.80
2018-08-09T02:01:38.082Z,11.83
2018-08-09T02:04:12.837Z,12.15
2018-08-09T02:06:47.563Z,11.57
2018-08-09T02:09:28.503Z,12.43
2018-08-09T02:12:04.866Z,12.15
2018-08-09T02:14:40.596Z,12.00
2018-08-09T02:17:15.329Z,12.03
2018-08-09T02:19:50.043Z,11.28
2018-08-09T02:22:24.786Z,11.40
2018-08-09T02:24:59.494Z,10.28
2018-08-09T02:27:35.224Z,11.25
2018-08-09T02:30:09.955Z,10.95
2018-08-09T02:32:44.678Z,11.48
2018-08-09T02:35:20.440Z,11.40
2018-08-09T02:37:55.177Z,12.03
2018-08-09T02:40:29.898Z,11.30
2018-08-09T02:43:04.688Z,11.70
2018-08-09T02:45:39.390Z,12.00
2018-08-09T02:48:14.147Z,11.03
2018-08-09T02:50:48.875Z,12.00
2018-08-09T02:53:24.627Z,12.13
2018-08-09T02:55:59.441Z,12.07
2018-08-09T02:58:50.459Z,12.50
2018-08-09T03:01:25.280Z,12.58
2018-08-09T03:04:00.084Z,9.78
2018-08-09T03:06:34.880Z,11.43
2018-08-09T03:09:12.788Z,12.35
2018-08-09T03:11:47.635Z,11.55
2018-08-09T03:14:22.450Z,11.05
2018-08-09T03:16:57.248Z,10.82
2018-08-09T03:19:33.079Z,12.68
2018-08-09T03:22:07.963Z,11.90
2018-08-09T03:24:42.755Z,12.90
2018-08-09T03:27:17.575Z,12.25
2018-08-09T03:29:53.384Z,11.35
2018-08-09T03:32:28.511Z,11.12
2018-08-09T03:35:03.400Z,10.58
2018-08-09T03:37:39.198Z,11.05
2018-08-09T03:40:14.032Z,10.68
2018-08-09T03:42:48.824Z,11.73
2018-08-09T03:45:23.648Z,10.65
2018-08-09T03:47:59.484Z,11.43
2018-08-09T03:50:34.292Z,10.95
2018-08-09T03:53:09.115Z,12.00
2018-08-09T03:55:43.929Z,12.25
2018-08-09T03:58:18.761Z,11.95
2018-08-09T04:00:54.755Z,13.25
2018-08-09T04:03:29.571Z,12.45
2018-08-09T04:06:05.599Z,12.85
2018-08-09T04:08:40.448Z,12.13
2018-08-09T04:11:16.241Z,9.88
2018-08-09T04:13:52.024Z,10.38
2018-08-09T04:16:26.840Z,12.20
2018-08-09T04:19:01.640Z,12.50
2018-08-09T04:21:36.453Z,11.57
2018-08-09T04:24:12.239Z,11.43
2018-08-09T04:26:47.020Z,11.30
2018-08-09T04:29:22.812Z,11.38
2018-08-09T04:31:57.633Z,11.08
2018-08-09T04:34:32.430Z,10.28
2018-08-09T04:37:07.388Z,10.82
2018-08-09T04:39:42.230Z,10.25
2018-08-09T04:42:17.181Z,10.72
2018-08-09T04:44:51.954Z,10.03
2018-08-09T04:47:27.757Z,9.70
2018-08-09T04:50:03.604Z,9.20
2018-08-09T04:52:38.399Z,9.43
2018-08-09T04:55:13.189Z,8.78
2018-08-09T04:57:48.520Z,9.08
2018-08-09T05:00:23.385Z,7.87
2018-08-09T05:02:59.221Z,6.83
2018-08-09T05:05:34.047Z,6.37
2018-08-09T05:08:09.056Z,6.50
2018-08-09T05:10:43.841Z,7.40
2018-08-09T05:13:18.684Z,6.08
2018-08-09T05:15:54.514Z,6.10
2018-08-09T05:18:29.506Z,5.75
2018-08-09T05:21:05.331Z,6.05
2018-08-09T05:23:40.176Z,5.42
2018-08-09T05:26:14.981Z,5.17
2018-08-09T05:28:49.760Z,5.37
2018-08-09T05:31:24.534Z,6.72
2018-08-09T05:33:59.345Z,7.50
2018-08-09T05:36:34.163Z,6.00
2018-08-09T05:39:10.924Z,5.72
2018-08-09T05:41:45.722Z,5.75
2018-08-09T05:44:20.516Z,4.78
2018-08-09T05:46:56.328Z,5.05
2018-08-09T05:49:31.484Z,5.45
2018-08-09T05:52:06.369Z,3.77
2018-08-09T05:54:41.163Z,3.55
2018-08-09T05:57:15.991Z,3.35
2018-08-09T05:59:51.500Z,3.70
2018-08-09T06:02:26.963Z,3.10
2018-08-09T06:05:01.468Z,3.43
2018-08-09T06:07:37.163Z,3.20
2018-08-09T06:10:12.224Z,3.17
2018-08-09T06:12:47.996Z,2.87
2018-08-09T06:15:26.677Z,2.97
2018-08-09T06:18:03.663Z,3.00
2018-08-09T06:20:40.569Z,2.63
2018-08-09T06:23:16.209Z,2.57
2018-08-09T06:25:50.720Z,2.20
2018-08-09T06:28:25.602Z,2.23
2018-08-09T06:31:01.140Z,2.30
2018-08-09T06:33:35.748Z,2.10
2018-08-09T06:36:11.435Z,2.43
2018-08-09T06:38:47.064Z,2.50
2018-08-09T06:41:21.544Z,2.10
2018-08-09T06:43:56.457Z,1.93
2018-08-09T06:46:31.021Z,2.27
2018-08-09T06:49:05.582Z,2.20
2018-08-09T06:51:40.087Z,2.10
2018-08-09T06:54:15.627Z,2.30
2018-08-09T06:56:50.424Z,2.40
2018-08-09T06:59:25.325Z,2.80
2018-08-09T07:01:59.852Z,3.10
2018-08-09T07:04:34.685Z,2.60
2018-08-09T07:07:11.907Z,2.67
2018-08-09T07:09:46.716Z,2.60
2018-08-09T07:12:22.475Z,2.55
2018-08-09T07:14:57.312Z,2.55
2018-08-09T07:17:32.173Z,2.77
2018-08-09T07:20:07.467Z,1.80
2018-08-09T07:22:42.968Z,2.17
2018-08-09T07:25:17.500Z,2.20
2018-08-09T07:27:51.981Z,2.27
2018-08-09T07:30:26.473Z,2.07
2018-08-09T07:33:00.974Z,2.70
2018-08-09T07:35:35.504Z,2.07
2018-08-09T07:38:10.062Z,2.17
2018-08-09T07:40:45.504Z,2.30
2018-08-09T07:43:22.025Z,2.27
2018-08-09T07:45:57.519Z,2.17
2018-08-09T07:48:32.069Z,2.40
2018-08-09T07:51:06.728Z,2.50
2018-08-09T07:53:41.287Z,2.10
2018-08-09T07:56:15.848Z,2.37
2018-08-09T07:58:51.396Z,2.40
2018-08-09T08:01:26.037Z,2.67
2018-08-09T08:04:00.542Z,2.27
2018-08-09T08:06:35.127Z,2.30
2018-08-09T08:09:11.456Z,1.80
2018-08-09T08:11:47.001Z,1.97
2018-08-09T08:14:21.494Z,2.40
2018-08-09T08:16:56.107Z,2.30
2018-08-09T08:19:30.665Z,2.20
2018-08-09T08:22:05.238Z,2.43
2018-08-09T08:24:40.120Z,2.27
2018-08-09T08:27:14.675Z,2.27
2018-08-09T08:29:49.165Z,2.60
2018-08-09T08:32:23.756Z,2.53
2018-08-09T08:34:58.281Z,2.30
2018-08-09T08:37:32.808Z,2.50
2018-08-09T08:40:09.084Z,2.37
2018-08-09T08:42:43.618Z,2.67
2018-08-09T08:45:18.108Z,3.27
2018-08-09T08:47:52.637Z,2.87
2018-08-09T08:50:27.155Z,2.80
2018-08-09T08:53:01.709Z,2.10
2018-08-09T08:55:36.227Z,2.30
2018-08-09T08:58:11.141Z,2.40
2018-08-09T09:00:45.687Z,1.90
2018-08-09T09:03:21.135Z,2.20
2018-08-09T09:05:55.674Z,2.43
2018-08-09T09:08:31.216Z,2.57
2018-08-09T09:11:05.724Z,2.27
2018-08-09T09:13:40.551Z,2.23
2018-08-09T09:16:15.212Z,2.30
2018-08-09T09:18:50.036Z,2.20
2018-08-09T09:21:24.517Z,2.07
2018-08-09T09:23:59.050Z,2.13
2018-08-09T09:26:34.541Z,2.00
2018-08-09T09:29:09.046Z,2.50
2018-08-09T09:31:43.606Z,2.50
2018-08-09T09:34:18.088Z,2.07
2018-08-09T09:36:53.576Z,2.20
2018-08-09T09:39:28.043Z,2.17
2018-08-09T09:42:03.556Z,2.40
2018-08-09T09:44:39.077Z,2.67
2018-08-09T09:47:13.579Z,2.13
2018-08-09T09:49:48.168Z,2.30
2018-08-09T09:52:25.054Z,2.63
2018-08-09T09:55:00.109Z,2.77
2018-08-09T09:57:36.385Z,2.40
2018-08-09T10:00:16.024Z,2.20
2018-08-09T10:02:50.497Z,2.50
2018-08-09T10:05:25.026Z,2.30
2018-08-09T10:08:00.687Z,2.27
2018-08-09T10:10:35.228Z,2.00
2018-08-09T10:13:09.690Z,2.27
2018-08-09T10:15:44.202Z,2.63
2018-08-09T10:18:18.664Z,2.50
2018-08-09T10:20:54.039Z,3.03
2018-08-09T10:23:28.503Z,2.70
2018-08-09T10:26:03.030Z,2.50
2018-08-09T10:28:37.467Z,2.63
2018-08-09T10:31:13.012Z,2.33
2018-08-09T10:33:47.478Z,2.80
2018-08-09T10:36:22.025Z,2.70
2018-08-09T10:38:56.462Z,2.23
2018-08-09T10:41:31.954Z,2.70
2018-08-09T10:44:06.443Z,3.10
2018-08-09T10:46:40.961Z,2.83
2018-08-09T10:49:16.461Z,2.50
2018-08-09T10:51:50.945Z,2.80
2018-08-09T10:54:25.440Z,2.77
2018-08-09T10:56:59.958Z,2.67
2018-08-09T10:59:34.436Z,2.60
2018-08-09T11:02:08.880Z,2.63
2018-08-09T11:04:43.324Z,2.77
2018-08-09T11:07:18.836Z,2.20
2018-08-09T11:09:53.260Z,2.27
2018-08-09T11:12:27.711Z,2.87
2018-08-09T11:15:02.223Z,2.40
2018-08-09T11:17:36.890Z,2.70
2018-08-09T11:20:11.542Z,2.10
2018-08-09T11:22:46.021Z,2.40
2018-08-09T11:25:20.554Z,2.70
2018-08-09T11:27:54.972Z,2.33
2018-08-09T11:30:29.408Z,2.00
2018-08-09T11:33:03.889Z,2.17
2018-08-09T11:35:38.343Z,2.40
2018-08-09T11:38:12.848Z,2.80
2018-08-09T11:40:47.325Z,2.80
2018-08-09T11:43:21.859Z,2.50
2018-08-09T11:45:56.508Z,3.10
2018-08-09T11:48:31.992Z,2.30
2018-08-09T11:51:07.501Z,2.47
2018-08-09T11:53:41.980Z,2.70
2018-08-09T11:56:16.464Z,2.67
2018-08-09T11:58:51.048Z,2.27
2018-08-09T12:01:25.574Z,2.37
2018-08-09T12:04:00.248Z,3.00
2018-08-09T12:06:34.760Z,2.40
2018-08-09T12:09:10.797Z,2.43
2018-08-09T12:11:45.428Z,2.70
2018-08-09T12:14:29.737Z,2.50
2018-08-09T12:17:13.030Z,2.67
2018-08-09T12:19:52.615Z,2.77
2018-08-09T12:22:27.640Z,2.50
2018-08-09T12:25:02.490Z,2.20
2018-08-09T12:27:44.321Z,2.90
2018-08-09T12:30:18.834Z,2.93
2018-08-09T12:32:53.720Z,2.80
2018-08-09T12:35:30.665Z,2.70
2018-08-09T12:38:06.666Z,2.67
2018-08-09T12:40:42.442Z,2.90
2018-08-09T12:43:17.556Z,3.00
2018-08-09T12:45:54.775Z,2.80
2018-08-09T12:48:30.036Z,2.60
2018-08-09T12:51:06.369Z,2.80
2018-08-09T12:53:43.097Z,3.00
2018-08-09T12:56:19.235Z,2.30
2018-08-09T12:58:55.903Z,2.50
2018-08-09T13:01:31.649Z,2.70
2018-08-09T13:04:06.887Z,3.23
2018-08-09T13:06:41.605Z,2.67
2018-08-09T13:09:16.132Z,3.07
2018-08-09T13:11:51.626Z,2.50
2018-08-09T13:14:28.426Z,2.57
2018-08-09T13:17:02.907Z,2.50
2018-08-09T13:19:44.615Z,2.90
2018-08-09T13:22:23.371Z,3.07
2018-08-09T13:25:04.102Z,3.20
2018-08-09T13:27:42.416Z,3.20
2018-08-09T13:30:17.038Z,3.43
2018-08-09T13:32:51.667Z,3.07
2018-08-09T13:35:26.472Z,2.60
2018-08-09T13:38:20.090Z,3.50
2018-08-09T13:43:51.231Z,4.50
2018-08-09T13:46:29.710Z,3.93
2018-08-09T13:49:07.403Z,4.47
2018-08-09T13:51:42.171Z,4.13
2018-08-09T13:54:19.440Z,4.57
2018-08-09T13:56:55.416Z,4.30
2018-08-09T13:59:33.530Z,4.37
2018-08-09T14:02:09.547Z,4.30
2018-08-09T14:04:45.372Z,4.33
2018-08-09T14:07:30.989Z,4.27
2018-08-09T14:10:08.092Z,4.20
2018-08-09T14:12:44.820Z,4.60
2018-08-09T14:15:28.872Z,4.40
2018-08-09T14:18:04.936Z,4.07
2018-08-09T14:20:39.512Z,4.27
2018-08-09T14:23:15.316Z,4.30
2018-08-09T14:25:49.880Z,4.30
2018-08-09T14:28:24.752Z,4.53
2018-08-09T14:30:59.325Z,4.37
2018-08-09T14:33:33.976Z,4.27
2018-08-09T14:36:09.485Z,4.23
2018-08-09T14:38:45.156Z,4.13
2018-08-09T14:41:19.663Z,4.10
2018-08-09T14:47:08.359Z,4.60
2018-08-09T14:49:42.851Z,4.43
2018-08-09T14:52:18.061Z,4.93
2018-08-09T14:54:52.587Z,4.43
2018-08-09T14:57:27.356Z,4.40
2018-08-09T15:00:02.331Z,4.53
2018-08-09T15:02:37.221Z,4.57
2018-08-09T15:05:16.589Z,5.10
2018-08-09T15:07:51.175Z,5.13
2018-08-09T15:10:25.705Z,4.63
2018-08-09T15:13:00.218Z,5.20
2018-08-09T15:15:34.889Z,4.67
2018-08-09T15:18:10.644Z,4.50
2018-08-09T15:20:46.029Z,4.43
2018-08-09T15:23:20.585Z,4.67
2018-08-09T15:25:55.196Z,4.87
2018-08-09T15:28:31.058Z,4.27
2018-08-09T15:31:05.617Z,4.60
2018-08-09T15:33:47.195Z,5.00
2018-08-09T15:39:36.443Z,3.80
2018-08-09T15:45:03.281Z,4.47
2018-08-09T15:47:47.107Z,4.20
2018-08-09T15:50:35.126Z,4.50
2018-08-09T15:53:20.778Z,4.47
2018-08-09T15:55:55.475Z,4.83
2018-08-09T15:58:43.174Z,4.83
2018-08-09T16:01:22.943Z,4.83
2018-08-09T16:03:57.536Z,4.87
2018-08-09T16:06:36.908Z,5.07
2018-08-09T16:09:14.113Z,4.73
2018-08-09T16:12:01.589Z,4.17
2018-08-09T16:15:01.653Z,5.23
2018-08-09T16:17:58.462Z,4.70
2018-08-09T16:20:40.828Z,5.20
2018-08-09T16:23:16.175Z,5.63
2018-08-09T16:34:43.588Z,5.30
2018-08-09T16:37:19.228Z,4.90
2018-08-09T16:39:57.239Z,5.10
2018-08-09T16:42:43.071Z,4.87
2018-08-09T16:45:28.560Z,5.67
2018-08-09T16:48:03.127Z,5.57
2018-08-09T16:56:39.825Z,5.23
2018-08-09T16:59:14.368Z,5.87
2018-08-09T17:01:48.905Z,6.20
2018-08-09T17:04:23.453Z,5.43
2018-08-09T17:06:58.026Z,5.90
2018-08-09T17:09:32.584Z,5.60
2018-08-09T17:12:07.165Z,6.13
2018-08-09T17:14:41.696Z,5.90
2018-08-09T17:17:16.302Z,5.80
2018-08-09T17:23:10.532Z,6.00
2018-08-09T17:25:45.152Z,6.10
2018-08-09T17:28:20.740Z,6.30
2018-08-09T17:30:55.300Z,5.70
2018-08-09T17:33:31.786Z,6.10
2018-08-09T17:36:06.479Z,6.00
2018-08-09T17:38:41.084Z,6.93
2018-08-09T17:41:15.600Z,6.93
2018-08-09T17:43:50.119Z,6.33
2018-08-09T17:46:24.934Z,7.42
2018-08-09T17:49:01.042Z,7.10
2018-08-09T17:51:38.108Z,7.33
2018-08-09T17:54:13.916Z,6.75
2018-08-09T17:56:48.523Z,6.47
2018-08-09T17:59:46.106Z,6.95
2018-08-09T18:02:23.525Z,7.00
2018-08-09T18:04:59.475Z,6.83
2018-08-09T18:07:34.442Z,7.15
2018-08-09T18:10:15.781Z,7.42
2018-08-09T18:12:51.462Z,7.23
2018-08-09T18:15:27.484Z,6.50
2018-08-09T18:18:03.736Z,6.97
2018-08-09T18:20:39.284Z,6.67
2018-08-09T18:23:14.296Z,6.80
2018-08-09T18:25:49.071Z,6.87
2018-08-09T18:28:23.920Z,7.28
2018-08-09T18:30:58.755Z,7.47
2018-08-09T18:33:34.734Z,7.25
2018-08-09T18:36:09.631Z,7.90
2018-08-09T18:38:45.480Z,7.58
2018-08-09T18:41:20.270Z,7.83
2018-08-09T18:43:55.145Z,7.00
2018-08-09T18:46:29.901Z,7.35
2018-08-09T18:49:05.057Z,7.45
2018-08-09T18:51:41.249Z,7.58
2018-08-09T18:54:16.052Z,8.23
2018-08-09T18:56:50.894Z,7.75
2018-08-09T18:59:26.761Z,7.35
2018-08-09T19:02:02.583Z,8.33
2018-08-09T19:04:37.467Z,8.25
2018-08-09T19:07:12.252Z,7.80
2018-08-09T19:09:47.187Z,7.62
2018-08-09T19:12:21.964Z,7.95
2018-08-09T19:14:57.109Z,8.20
2018-08-09T19:17:32.033Z,7.72
2018-08-09T19:20:08.669Z,8.00
2018-08-09T19:22:44.896Z,8.83
2018-08-09T19:25:20.784Z,7.95
2018-08-09T19:27:55.657Z,9.50
2018-08-09T19:30:32.125Z,10.95
2018-08-09T19:33:09.731Z,9.23
2018-08-09T19:35:45.749Z,10.45
2018-08-09T19:38:20.876Z,10.78
2018-08-09T19:40:55.675Z,10.88
2018-08-09T19:43:31.590Z,13.03
2018-08-09T19:46:23.979Z,12.93
2018-08-09T19:49:03.684Z,12.87
2018-08-09T19:51:38.530Z,12.05
2018-08-09T19:54:13.325Z,9.85
2018-08-09T19:56:49.237Z,12.78
2018-08-09T19:59:24.068Z,12.45
2018-08-09T20:01:59.933Z,10.58
2018-08-09T20:04:36.289Z,12.33
2018-08-09T20:07:11.244Z,12.05
2018-08-09T20:09:47.029Z,14.15
2018-08-09T20:12:22.073Z,11.45
2018-08-09T20:14:57.901Z,11.00
2018-08-09T20:17:32.719Z,11.60
2018-08-09T20:20:09.222Z,12.45
2018-08-09T20:22:44.161Z,11.60
2018-08-09T20:25:19.103Z,12.90
2018-08-09T20:27:55.008Z,13.13
2018-08-09T20:30:29.975Z,11.38
2018-08-09T20:33:04.820Z,10.90
2018-08-09T20:35:39.684Z,11.35
2018-08-09T20:38:14.613Z,10.08
2018-08-09T20:40:49.415Z,10.43
2018-08-09T20:43:24.260Z,9.33
2018-08-09T20:45:59.074Z,8.90
2018-08-09T20:48:33.977Z,7.83
2018-08-09T20:51:09.803Z,8.40
2018-08-09T20:56:36.408Z,8.88
2018-08-09T20:59:12.198Z,7.90
2018-08-09T21:02:09.400Z,8.30
2018-08-09T21:04:52.893Z,7.80
2018-08-09T21:07:30.194Z,7.78
2018-08-09T21:10:14.038Z,8.20
2018-08-09T21:13:08.386Z,8.50
2018-08-09T21:15:46.347Z,9.20
2018-08-09T21:18:33.928Z,9.68
2018-08-09T21:21:09.179Z,10.25
2018-08-09T21:23:47.319Z,10.45
2018-08-09T21:26:22.131Z,10.55
2018-08-09T21:28:58.432Z,11.30
2018-08-09T21:31:34.396Z,11.55
2018-08-09T21:34:09.344Z,12.90
2018-08-09T21:36:45.573Z,12.80
2018-08-09T21:39:20.414Z,11.65
2018-08-09T21:41:55.217Z,12.70
2018-08-09T21:44:30.031Z,11.12
2018-08-09T21:47:04.865Z,11.10
2018-08-09T21:49:39.746Z,11.33
2018-08-09T21:52:15.445Z,12.20
2018-08-09T21:54:50.290Z,13.10
2018-08-09T21:57:26.139Z,12.20
2018-08-09T22:00:00.997Z,12.35
2018-08-09T22:02:35.842Z,12.95
2018-08-09T22:05:15.732Z,13.58
2018-08-09T22:07:55.896Z,12.82
2018-08-09T22:10:36.081Z,13.72
2018-08-09T22:13:16.426Z,12.88
2018-08-09T22:15:56.425Z,11.80
2018-08-09T22:18:36.413Z,11.65
2018-08-09T22:21:16.624Z,10.80
2018-08-09T22:23:51.497Z,10.98
2018-08-09T22:26:26.396Z,10.72
2018-08-09T22:29:01.198Z,11.48
2018-08-09T22:31:36.012Z,13.22
2018-08-09T22:34:10.824Z,12.73
2018-08-09T22:36:45.992Z,13.25
2018-08-09T22:39:21.848Z,13.10
2018-08-09T22:41:56.712Z,13.72
2018-08-09T22:44:31.513Z,14.33
2018-08-09T22:47:06.315Z,14.07
2018-08-09T22:49:41.142Z,13.95
2018-08-09T22:52:15.995Z,14.78
2018-08-09T22:54:51.905Z,17.23
2018-08-09T22:57:26.729Z,16.75
2018-08-09T23:00:01.878Z,18.95
2018-08-09T23:02:36.732Z,17.32
2018-08-09T23:05:12.660Z,17.85
2018-08-09T23:07:47.637Z,18.12
2018-08-09T23:10:22.793Z,17.82
2018-08-09T23:12:57.648Z,19.30
2018-08-09T23:15:32.504Z,19.37
2018-08-09T23:18:07.766Z,19.17
2018-08-09T23:20:42.628Z,19.85
2018-08-09T23:23:17.678Z,20.35
2018-08-09T23:25:53.543Z,19.57
2018-08-09T23:28:28.384Z,20.17
2018-08-09T23:31:03.192Z,19.37
2018-08-09T23:33:37.986Z,18.00
2018-08-09T23:36:12.800Z,19.12
2018-08-09T23:38:47.749Z,18.20
2018-08-09T23:41:22.937Z,16.23
2018-08-09T23:43:57.764Z,16.80
2018-08-09T23:46:32.612Z,16.60
2018-08-09T23:49:07.498Z,15.72
2018-08-09T23:51:42.319Z,15.95
2018-08-09T23:54:17.053Z,14.47
2018-08-09T23:56:51.848Z,13.80
2018-08-09T23:59:26.716Z,12.47
